sensor_id;sensor_type;location;lat;lon;timestamp;temperature;humidity
39347;DHT22;26262;49.836;6.632;2022-11-15T00:00:33;7.80;99.90
39347;DHT22;26262;49.836;6.632;2022-11-15T00:02:59;7.90;99.90
39347;DHT22;26262;49.836;6.632;2022-11-15T00:05:25;7.80;99.90
39347;DHT22;26262;49.836;6.632;2022-11-15T00:07:50;7.90;99.90
39347;DHT22;26262;49.836;6.632;2022-11-15T00:10:16;7.90;99.90
39347;DHT22;26262;49.836;6.632;2022-11-15T00:12:41;7.90;99.90
39347;DHT22;26262;49.836;6.632;2022-11-15T00:15:08;7.90;99.90
39347;DHT22;26262;49.836;6.632;2022-11-15T00:17:34;7.90;99.90
39347;DHT22;26262;49.836;6.632;2022-11-15T00:19:59;8.00;99.90
39347;DHT22;26262;49.836;6.632;2022-11-15T00:22:31;8.00;99.90
39347;DHT22;26262;49.836;6.632;2022-11-15T00:24:57;8.00;99.90
39347;DHT22;26262;49.836;6.632;2022-11-15T00:27:22;8.00;99.90
39347;DHT22;26262;49.836;6.632;2022-11-15T00:29:48;8.10;99.90
39347;DHT22;26262;49.836;6.632;2022-11-15T00:32:13;8.10;99.90
39347;DHT22;26262;49.836;6.632;2022-11-15T00:34:39;8.20;99.90
39347;DHT22;26262;49.836;6.632;2022-11-15T00:37:06;8.10;99.90
39347;DHT22;26262;49.836;6.632;2022-11-15T00:39:31;8.20;99.90
39347;DHT22;26262;49.836;6.632;2022-11-15T00:41:57;8.20;99.90
39347;DHT22;26262;49.836;6.632;2022-11-15T00:44:22;8.20;99.90
39347;DHT22;26262;49.836;6.632;2022-11-15T00:46:48;8.30;99.90
39347;DHT22;26262;49.836;6.632;2022-11-15T00:49:13;8.30;99.90
39347;DHT22;26262;49.836;6.632;2022-11-15T00:51:39;8.30;99.90
39347;DHT22;26262;49.836;6.632;2022-11-15T00:54:04;8.30;99.90
39347;DHT22;26262;49.836;6.632;2022-11-15T00:56:30;8.40;99.90
39347;DHT22;26262;49.836;6.632;2022-11-15T00:58:56;8.40;99.90
39347;DHT22;26262;49.836;6.632;2022-11-15T01:01:21;8.40;99.90
39347;DHT22;26262;49.836;6.632;2022-11-15T01:03:47;8.50;99.90
39347;DHT22;26262;49.836;6.632;2022-11-15T01:06:12;8.50;99.90
39347;DHT22;26262;49.836;6.632;2022-11-15T01:08:39;8.60;99.90
39347;DHT22;26262;49.836;6.632;2022-11-15T01:11:07;8.50;99.90
39347;DHT22;26262;49.836;6.632;2022-11-15T01:13:34;8.60;99.90
39347;DHT22;26262;49.836;6.632;2022-11-15T01:16:08;8.70;99.90
39347;DHT22;26262;49.836;6.632;2022-11-15T01:18:34;8.70;99.90
39347;DHT22;26262;49.836;6.632;2022-11-15T01:20:59;8.80;99.90
39347;DHT22;26262;49.836;6.632;2022-11-15T01:23:25;8.80;99.90
39347;DHT22;26262;49.836;6.632;2022-11-15T01:25:50;9.00;99.90
39347;DHT22;26262;49.836;6.632;2022-11-15T01:28:16;9.00;99.90
39347;DHT22;26262;49.836;6.632;2022-11-15T01:30:41;9.00;99.90
39347;DHT22;26262;49.836;6.632;2022-11-15T01:33:07;9.00;99.90
39347;DHT22;26262;49.836;6.632;2022-11-15T01:35:32;9.00;99.90
39347;DHT22;26262;49.836;6.632;2022-11-15T01:37:58;9.10;99.90
39347;DHT22;26262;49.836;6.632;2022-11-15T01:40:23;9.10;99.90
39347;DHT22;26262;49.836;6.632;2022-11-15T01:42:49;9.20;99.90
39347;DHT22;26262;49.836;6.632;2022-11-15T01:45:15;9.30;99.90
39347;DHT22;26262;49.836;6.632;2022-11-15T01:47:45;9.40;99.90
39347;DHT22;26262;49.836;6.632;2022-11-15T01:50:17;9.40;99.90
39347;DHT22;26262;49.836;6.632;2022-11-15T01:52:44;9.30;99.90
39347;DHT22;26262;49.836;6.632;2022-11-15T01:55:17;9.30;99.90
39347;DHT22;26262;49.836;6.632;2022-11-15T01:57:46;9.50;99.90
39347;DHT22;26262;49.836;6.632;2022-11-15T02:00:12;9.70;99.90
39347;DHT22;26262;49.836;6.632;2022-11-15T02:02:38;9.70;99.90
39347;DHT22;26262;49.836;6.632;2022-11-15T02:05:05;9.70;99.90
39347;DHT22;26262;49.836;6.632;2022-11-15T02:07:32;9.90;99.90
39347;DHT22;26262;49.836;6.632;2022-11-15T02:10:07;10.00;99.90
39347;DHT22;26262;49.836;6.632;2022-11-15T02:12:33;10.10;99.90
39347;DHT22;26262;49.836;6.632;2022-11-15T02:14:59;10.20;99.90
39347;DHT22;26262;49.836;6.632;2022-11-15T02:32:07;9.90;99.90
39347;DHT22;26262;49.836;6.632;2022-11-15T02:37:34;9.80;99.90
39347;DHT22;26262;49.836;6.632;2022-11-15T02:40:09;9.80;99.90
39347;DHT22;26262;49.836;6.632;2022-11-15T02:42:45;9.80;99.90
39347;DHT22;26262;49.836;6.632;2022-11-15T02:45:40;9.80;99.90
39347;DHT22;26262;49.836;6.632;2022-11-15T02:48:07;9.80;99.90
39347;DHT22;26262;49.836;6.632;2022-11-15T02:50:34;9.70;99.90
39347;DHT22;26262;49.836;6.632;2022-11-15T02:53:00;9.70;99.90
39347;DHT22;26262;49.836;6.632;2022-11-15T02:55:37;9.70;99.90
39347;DHT22;26262;49.836;6.632;2022-11-15T03:01:08;9.80;99.90
39347;DHT22;26262;49.836;6.632;2022-11-15T03:06:46;9.80;99.90
39347;DHT22;26262;49.836;6.632;2022-11-15T03:12:09;9.80;99.90
39347;DHT22;26262;49.836;6.632;2022-11-15T03:14:59;9.80;99.90
39347;DHT22;26262;49.836;6.632;2022-11-15T03:17:29;9.90;99.90
39347;DHT22;26262;49.836;6.632;2022-11-15T03:20:01;10.00;99.90
39347;DHT22;26262;49.836;6.632;2022-11-15T03:22:29;10.10;99.90
39347;DHT22;26262;49.836;6.632;2022-11-15T03:25:02;9.90;99.90
39347;DHT22;26262;49.836;6.632;2022-11-15T03:27:35;9.90;99.90
39347;DHT22;26262;49.836;6.632;2022-11-15T03:30:06;9.90;99.90
39347;DHT22;26262;49.836;6.632;2022-11-15T03:32:36;9.80;99.90
39347;DHT22;26262;49.836;6.632;2022-11-15T03:35:10;9.70;99.90
39347;DHT22;26262;49.836;6.632;2022-11-15T03:40:05;9.60;99.90
39347;DHT22;26262;49.836;6.632;2022-11-15T03:45:39;9.30;99.90
39347;DHT22;26262;49.836;6.632;2022-11-15T03:48:24;9.20;99.90
39347;DHT22;26262;49.836;6.632;2022-11-15T03:50:51;9.20;99.90
39347;DHT22;26262;49.836;6.632;2022-11-15T03:53:17;9.30;99.90
39347;DHT22;26262;49.836;6.632;2022-11-15T03:55:43;9.30;99.90
39347;DHT22;26262;49.836;6.632;2022-11-15T03:58:09;9.10;99.90
39347;DHT22;26262;49.836;6.632;2022-11-15T04:00:34;9.10;99.90
39347;DHT22;26262;49.836;6.632;2022-11-15T04:03:00;9.10;99.90
39347;DHT22;26262;49.836;6.632;2022-11-15T04:05:25;9.10;99.90
39347;DHT22;26262;49.836;6.632;2022-11-15T04:07:51;9.10;99.90
39347;DHT22;26262;49.836;6.632;2022-11-15T04:10:17;9.10;99.90
39347;DHT22;26262;49.836;6.632;2022-11-15T04:12:44;9.10;99.90
39347;DHT22;26262;49.836;6.632;2022-11-15T04:15:16;9.20;99.90
39347;DHT22;26262;49.836;6.632;2022-11-15T04:17:47;9.20;99.90
39347;DHT22;26262;49.836;6.632;2022-11-15T04:20:18;9.10;99.90
39347;DHT22;26262;49.836;6.632;2022-11-15T04:23:07;9.10;99.90
39347;DHT22;26262;49.836;6.632;2022-11-15T04:25:54;9.10;99.90
39347;DHT22;26262;49.836;6.632;2022-11-15T04:28:20;9.10;99.90
39347;DHT22;26262;49.836;6.632;2022-11-15T04:30:46;9.10;99.90
39347;DHT22;26262;49.836;6.632;2022-11-15T04:33:12;9.10;99.90
39347;DHT22;26262;49.836;6.632;2022-11-15T04:35:38;9.10;99.90
39347;DHT22;26262;49.836;6.632;2022-11-15T04:38:05;9.20;99.90
39347;DHT22;26262;49.836;6.632;2022-11-15T04:40:31;9.00;99.90
39347;DHT22;26262;49.836;6.632;2022-11-15T04:42:57;9.10;99.90
39347;DHT22;26262;49.836;6.632;2022-11-15T04:45:23;9.10;99.90
39347;DHT22;26262;49.836;6.632;2022-11-15T04:47:48;9.00;99.90
39347;DHT22;26262;49.836;6.632;2022-11-15T04:50:15;9.10;99.90
39347;DHT22;26262;49.836;6.632;2022-11-15T04:52:49;9.00;99.90
39347;DHT22;26262;49.836;6.632;2022-11-15T04:55:15;9.10;99.90
39347;DHT22;26262;49.836;6.632;2022-11-15T04:57:41;9.10;99.90
39347;DHT22;26262;49.836;6.632;2022-11-15T05:00:12;9.10;99.90
39347;DHT22;26262;49.836;6.632;2022-11-15T05:02:38;9.10;99.90
39347;DHT22;26262;49.836;6.632;2022-11-15T05:05:24;9.10;99.90
39347;DHT22;26262;49.836;6.632;2022-11-15T05:07:49;9.10;99.90
39347;DHT22;26262;49.836;6.632;2022-11-15T05:10:15;9.10;99.90
39347;DHT22;26262;49.836;6.632;2022-11-15T05:12:40;9.00;99.90
39347;DHT22;26262;49.836;6.632;2022-11-15T05:15:06;9.00;99.90
39347;DHT22;26262;49.836;6.632;2022-11-15T05:17:32;8.80;99.90
39347;DHT22;26262;49.836;6.632;2022-11-15T05:19:57;8.80;99.90
39347;DHT22;26262;49.836;6.632;2022-11-15T05:22:23;8.80;99.90
39347;DHT22;26262;49.836;6.632;2022-11-15T05:24:49;8.90;99.90
39347;DHT22;26262;49.836;6.632;2022-11-15T05:27:14;8.90;99.90
39347;DHT22;26262;49.836;6.632;2022-11-15T05:29:40;9.00;99.90
39347;DHT22;26262;49.836;6.632;2022-11-15T05:32:06;9.00;99.90
39347;DHT22;26262;49.836;6.632;2022-11-15T05:34:33;8.90;99.90
39347;DHT22;26262;49.836;6.632;2022-11-15T05:36:59;8.90;99.90
39347;DHT22;26262;49.836;6.632;2022-11-15T05:39:24;8.90;99.90
39347;DHT22;26262;49.836;6.632;2022-11-15T05:41:57;8.90;99.90
39347;DHT22;26262;49.836;6.632;2022-11-15T05:44:26;9.00;99.90
39347;DHT22;26262;49.836;6.632;2022-11-15T05:46:53;8.90;99.90
39347;DHT22;26262;49.836;6.632;2022-11-15T05:49:23;8.90;99.90
39347;DHT22;26262;49.836;6.632;2022-11-15T05:51:51;8.80;99.90
39347;DHT22;26262;49.836;6.632;2022-11-15T05:54:17;8.90;99.90
39347;DHT22;26262;49.836;6.632;2022-11-15T05:56:44;8.90;99.90
39347;DHT22;26262;49.836;6.632;2022-11-15T05:59:11;8.80;99.90
39347;DHT22;26262;49.836;6.632;2022-11-15T06:01:37;8.80;99.90
39347;DHT22;26262;49.836;6.632;2022-11-15T06:04:03;8.70;99.90
39347;DHT22;26262;49.836;6.632;2022-11-15T06:06:29;8.70;99.90
39347;DHT22;26262;49.836;6.632;2022-11-15T06:08:54;8.60;99.90
39347;DHT22;26262;49.836;6.632;2022-11-15T06:11:20;8.60;99.90
39347;DHT22;26262;49.836;6.632;2022-11-15T06:13:45;8.50;99.90
39347;DHT22;26262;49.836;6.632;2022-11-15T06:16:11;8.50;99.90
39347;DHT22;26262;49.836;6.632;2022-11-15T06:18:37;8.50;99.90
39347;DHT22;26262;49.836;6.632;2022-11-15T06:21:03;8.50;99.90
39347;DHT22;26262;49.836;6.632;2022-11-15T06:23:32;8.50;99.90
39347;DHT22;26262;49.836;6.632;2022-11-15T06:25:58;8.60;99.90
39347;DHT22;26262;49.836;6.632;2022-11-15T06:28:24;8.60;99.90
39347;DHT22;26262;49.836;6.632;2022-11-15T06:30:50;8.60;99.90
39347;DHT22;26262;49.836;6.632;2022-11-15T06:33:15;8.60;99.90
39347;DHT22;26262;49.836;6.632;2022-11-15T06:35:41;8.60;99.90
39347;DHT22;26262;49.836;6.632;2022-11-15T06:38:08;8.70;99.90
39347;DHT22;26262;49.836;6.632;2022-11-15T06:40:35;8.70;99.90
39347;DHT22;26262;49.836;6.632;2022-11-15T06:43:01;8.70;99.90
39347;DHT22;26262;49.836;6.632;2022-11-15T06:45:27;8.80;99.90
39347;DHT22;26262;49.836;6.632;2022-11-15T06:47:52;8.70;99.90
39347;DHT22;26262;49.836;6.632;2022-11-15T06:50:18;8.80;99.90
39347;DHT22;26262;49.836;6.632;2022-11-15T06:52:44;8.80;99.90
39347;DHT22;26262;49.836;6.632;2022-11-15T06:55:10;8.80;99.90
39347;DHT22;26262;49.836;6.632;2022-11-15T06:57:36;8.80;99.90
39347;DHT22;26262;49.836;6.632;2022-11-15T07:00:04;8.60;99.90
39347;DHT22;26262;49.836;6.632;2022-11-15T07:02:30;8.70;99.90
39347;DHT22;26262;49.836;6.632;2022-11-15T07:04:56;8.60;99.90
39347;DHT22;26262;49.836;6.632;2022-11-15T07:07:21;8.60;99.90
39347;DHT22;26262;49.836;6.632;2022-11-15T07:09:47;8.50;99.90
39347;DHT22;26262;49.836;6.632;2022-11-15T07:12:12;8.50;99.90
39347;DHT22;26262;49.836;6.632;2022-11-15T07:14:38;8.50;99.90
39347;DHT22;26262;49.836;6.632;2022-11-15T07:17:04;8.40;99.90
39347;DHT22;26262;49.836;6.632;2022-11-15T07:19:30;8.30;99.90
39347;DHT22;26262;49.836;6.632;2022-11-15T07:21:56;8.20;99.90
39347;DHT22;26262;49.836;6.632;2022-11-15T07:24:21;8.20;99.90
39347;DHT22;26262;49.836;6.632;2022-11-15T07:26:47;8.30;99.90
39347;DHT22;26262;49.836;6.632;2022-11-15T07:29:12;8.30;99.90
39347;DHT22;26262;49.836;6.632;2022-11-15T07:31:38;8.30;99.90
39347;DHT22;26262;49.836;6.632;2022-11-15T07:34:04;8.40;99.90
39347;DHT22;26262;49.836;6.632;2022-11-15T07:36:29;8.40;99.90
39347;DHT22;26262;49.836;6.632;2022-11-15T07:38:55;8.40;99.90
39347;DHT22;26262;49.836;6.632;2022-11-15T07:41:20;8.40;99.90
39347;DHT22;26262;49.836;6.632;2022-11-15T07:43:46;8.30;99.90
39347;DHT22;26262;49.836;6.632;2022-11-15T07:46:11;8.30;99.90
39347;DHT22;26262;49.836;6.632;2022-11-15T07:48:38;8.30;99.90
39347;DHT22;26262;49.836;6.632;2022-11-15T07:51:05;8.10;99.90
39347;DHT22;26262;49.836;6.632;2022-11-15T07:53:31;8.00;99.90
39347;DHT22;26262;49.836;6.632;2022-11-15T07:55:57;8.10;99.90
39347;DHT22;26262;49.836;6.632;2022-11-15T07:58:22;8.10;99.90
39347;DHT22;26262;49.836;6.632;2022-11-15T08:00:48;8.10;99.90
39347;DHT22;26262;49.836;6.632;2022-11-15T08:03:15;8.20;99.90
39347;DHT22;26262;49.836;6.632;2022-11-15T08:05:42;8.20;99.90
39347;DHT22;26262;49.836;6.632;2022-11-15T08:08:10;8.30;99.90
39347;DHT22;26262;49.836;6.632;2022-11-15T08:10:36;8.40;99.90
39347;DHT22;26262;49.836;6.632;2022-11-15T08:13:03;8.40;99.90
39347;DHT22;26262;49.836;6.632;2022-11-15T08:15:29;8.30;99.90
39347;DHT22;26262;49.836;6.632;2022-11-15T08:18:09;8.30;99.90
39347;DHT22;26262;49.836;6.632;2022-11-15T08:20:35;8.40;99.90
39347;DHT22;26262;49.836;6.632;2022-11-15T08:23:02;8.50;99.90
39347;DHT22;26262;49.836;6.632;2022-11-15T08:25:30;8.60;99.90
39347;DHT22;26262;49.836;6.632;2022-11-15T08:27:57;8.70;99.90
39347;DHT22;26262;49.836;6.632;2022-11-15T08:30:24;8.70;99.90
39347;DHT22;26262;49.836;6.632;2022-11-15T08:32:50;8.80;99.90
39347;DHT22;26262;49.836;6.632;2022-11-15T08:35:16;8.70;99.90
39347;DHT22;26262;49.836;6.632;2022-11-15T08:37:42;8.80;99.90
39347;DHT22;26262;49.836;6.632;2022-11-15T08:40:08;8.80;99.90
39347;DHT22;26262;49.836;6.632;2022-11-15T08:42:35;8.80;99.90
39347;DHT22;26262;49.836;6.632;2022-11-15T08:45:00;8.70;99.90
39347;DHT22;26262;49.836;6.632;2022-11-15T08:47:26;8.80;99.90
39347;DHT22;26262;49.836;6.632;2022-11-15T08:49:52;8.80;99.90
39347;DHT22;26262;49.836;6.632;2022-11-15T08:52:17;8.80;99.90
39347;DHT22;26262;49.836;6.632;2022-11-15T08:54:43;8.90;99.90
39347;DHT22;26262;49.836;6.632;2022-11-15T08:57:08;8.90;99.90
39347;DHT22;26262;49.836;6.632;2022-11-15T08:59:35;9.00;99.90
39347;DHT22;26262;49.836;6.632;2022-11-15T09:02:01;9.00;99.90
39347;DHT22;26262;49.836;6.632;2022-11-15T09:04:27;9.10;99.90
39347;DHT22;26262;49.836;6.632;2022-11-15T09:06:52;9.20;99.90
39347;DHT22;26262;49.836;6.632;2022-11-15T09:09:18;9.30;99.90
39347;DHT22;26262;49.836;6.632;2022-11-15T09:11:43;9.20;99.90
39347;DHT22;26262;49.836;6.632;2022-11-15T09:14:14;9.30;99.90
39347;DHT22;26262;49.836;6.632;2022-11-15T09:16:39;9.30;99.90
39347;DHT22;26262;49.836;6.632;2022-11-15T09:19:05;9.40;99.90
39347;DHT22;26262;49.836;6.632;2022-11-15T09:21:32;9.60;99.90
39347;DHT22;26262;49.836;6.632;2022-11-15T09:23:57;9.70;99.90
39347;DHT22;26262;49.836;6.632;2022-11-15T09:26:23;9.80;99.90
39347;DHT22;26262;49.836;6.632;2022-11-15T09:28:49;9.90;99.90
39347;DHT22;26262;49.836;6.632;2022-11-15T09:31:15;10.00;99.90
39347;DHT22;26262;49.836;6.632;2022-11-15T09:33:43;10.10;99.90
39347;DHT22;26262;49.836;6.632;2022-11-15T09:36:09;10.20;99.90
39347;DHT22;26262;49.836;6.632;2022-11-15T09:38:35;10.20;99.90
39347;DHT22;26262;49.836;6.632;2022-11-15T09:43:52;10.40;99.90
39347;DHT22;26262;49.836;6.632;2022-11-15T09:46:42;10.40;99.90
39347;DHT22;26262;49.836;6.632;2022-11-15T09:49:14;10.50;99.90
39347;DHT22;26262;49.836;6.632;2022-11-15T09:51:42;10.50;99.90
39347;DHT22;26262;49.836;6.632;2022-11-15T09:54:23;10.40;99.90
39347;DHT22;26262;49.836;6.632;2022-11-15T09:56:51;10.50;99.90
39347;DHT22;26262;49.836;6.632;2022-11-15T10:04:31;10.70;99.90
39347;DHT22;26262;49.836;6.632;2022-11-15T10:07:15;10.70;99.90
39347;DHT22;26262;49.836;6.632;2022-11-15T10:09:47;10.70;99.90
39347;DHT22;26262;49.836;6.632;2022-11-15T10:12:15;10.90;99.90
39347;DHT22;26262;49.836;6.632;2022-11-15T10:14:42;11.00;99.90
39347;DHT22;26262;49.836;6.632;2022-11-15T10:22:39;11.20;99.90
39347;DHT22;26262;49.836;6.632;2022-11-15T10:27:34;11.40;99.90
39347;DHT22;26262;49.836;6.632;2022-11-15T10:29:59;11.40;99.90
39347;DHT22;26262;49.836;6.632;2022-11-15T10:32:25;11.60;99.90
39347;DHT22;26262;49.836;6.632;2022-11-15T10:34:51;11.70;99.90
39347;DHT22;26262;49.836;6.632;2022-11-15T10:37:30;11.60;99.90
39347;DHT22;26262;49.836;6.632;2022-11-15T10:40:14;11.60;99.90
39347;DHT22;26262;49.836;6.632;2022-11-15T10:42:40;11.50;99.90
39347;DHT22;26262;49.836;6.632;2022-11-15T10:45:28;11.60;99.90
39347;DHT22;26262;49.836;6.632;2022-11-15T10:48:19;11.60;99.90
39347;DHT22;26262;49.836;6.632;2022-11-15T10:50:47;11.80;99.90
39347;DHT22;26262;49.836;6.632;2022-11-15T10:55:47;11.80;99.90
39347;DHT22;26262;49.836;6.632;2022-11-15T11:01:09;12.10;99.90
39347;DHT22;26262;49.836;6.632;2022-11-15T11:03:37;12.60;99.90
39347;DHT22;26262;49.836;6.632;2022-11-15T11:06:17;12.90;99.90
39347;DHT22;26262;49.836;6.632;2022-11-15T11:08:59;13.70;99.90
39347;DHT22;26262;49.836;6.632;2022-11-15T11:11:44;14.50;99.90
39347;DHT22;26262;49.836;6.632;2022-11-15T11:14:20;15.30;99.90
39347;DHT22;26262;49.836;6.632;2022-11-15T11:16:53;15.20;99.90
39347;DHT22;26262;49.836;6.632;2022-11-15T11:25:18;13.60;99.90
39347;DHT22;26262;49.836;6.632;2022-11-15T11:27:54;13.50;99.90
39347;DHT22;26262;49.836;6.632;2022-11-15T11:30:47;13.30;99.90
39347;DHT22;26262;49.836;6.632;2022-11-15T11:33:31;13.80;99.90
39347;DHT22;26262;49.836;6.632;2022-11-15T11:49:12;15.30;99.90
39347;DHT22;26262;49.836;6.632;2022-11-15T11:51:54;15.20;99.90
39347;DHT22;26262;49.836;6.632;2022-11-15T11:54:43;14.60;99.90
39347;DHT22;26262;49.836;6.632;2022-11-15T12:00:01;14.40;99.90
39347;DHT22;26262;49.836;6.632;2022-11-15T12:02:31;14.10;99.90
39347;DHT22;26262;49.836;6.632;2022-11-15T12:05:10;13.80;99.90
39347;DHT22;26262;49.836;6.632;2022-11-15T12:07:38;13.70;99.90
39347;DHT22;26262;49.836;6.632;2022-11-15T12:12:58;13.30;99.90
39347;DHT22;26262;49.836;6.632;2022-11-15T12:15:33;13.20;99.90
39347;DHT22;26262;49.836;6.632;2022-11-15T12:18:00;13.20;99.90
39347;DHT22;26262;49.836;6.632;2022-11-15T12:20:33;13.10;99.90
39347;DHT22;26262;49.836;6.632;2022-11-15T12:23:28;13.10;99.90
39347;DHT22;26262;49.836;6.632;2022-11-15T12:26:01;13.20;99.90
39347;DHT22;26262;49.836;6.632;2022-11-15T12:28:54;13.10;99.90
39347;DHT22;26262;49.836;6.632;2022-11-15T12:31:37;13.10;99.90
39347;DHT22;26262;49.836;6.632;2022-11-15T12:36:52;13.30;99.90
39347;DHT22;26262;49.836;6.632;2022-11-15T12:39:18;13.30;99.90
39347;DHT22;26262;49.836;6.632;2022-11-15T13:02:40;14.10;99.90
39347;DHT22;26262;49.836;6.632;2022-11-15T13:17:48;14.40;99.90
39347;DHT22;26262;49.836;6.632;2022-11-15T13:22:45;14.40;99.90
39347;DHT22;26262;49.836;6.632;2022-11-15T13:30:56;14.50;99.90
39347;DHT22;26262;49.836;6.632;2022-11-15T13:33:30;14.40;99.90
39347;DHT22;26262;49.836;6.632;2022-11-15T13:35:59;14.50;99.90
39347;DHT22;26262;49.836;6.632;2022-11-15T13:38:33;14.50;99.90
39347;DHT22;26262;49.836;6.632;2022-11-15T13:41:09;14.10;99.90
39347;DHT22;26262;49.836;6.632;2022-11-15T13:43:35;14.20;99.90
39347;DHT22;26262;49.836;6.632;2022-11-15T13:46:06;14.30;99.90
39347;DHT22;26262;49.836;6.632;2022-11-15T13:48:32;14.40;99.90
39347;DHT22;26262;49.836;6.632;2022-11-15T13:51:44;14.50;99.90
39347;DHT22;26262;49.836;6.632;2022-11-15T13:54:03;14.50;99.90
39347;DHT22;26262;49.836;6.632;2022-11-15T13:56:33;14.40;99.90
39347;DHT22;26262;49.836;6.632;2022-11-15T13:59:00;14.40;99.90
39347;DHT22;26262;49.836;6.632;2022-11-15T14:01:28;14.40;99.90
39347;DHT22;26262;49.836;6.632;2022-11-15T14:03:58;14.30;99.90
39347;DHT22;26262;49.836;6.632;2022-11-15T14:06:27;14.40;99.90
39347;DHT22;26262;49.836;6.632;2022-11-15T14:11:37;14.20;99.90
39347;DHT22;26262;49.836;6.632;2022-11-15T14:14:14;14.30;99.90
39347;DHT22;26262;49.836;6.632;2022-11-15T14:16:45;14.20;99.90
39347;DHT22;26262;49.836;6.632;2022-11-15T14:22:15;13.80;99.90
39347;DHT22;26262;49.836;6.632;2022-11-15T14:24:44;13.90;99.90
39347;DHT22;26262;49.836;6.632;2022-11-15T14:27:25;13.90;99.90
39347;DHT22;26262;49.836;6.632;2022-11-15T14:29:51;13.90;99.90
39347;DHT22;26262;49.836;6.632;2022-11-15T14:32:30;13.90;99.90
39347;DHT22;26262;49.836;6.632;2022-11-15T14:35:03;13.90;99.90
39347;DHT22;26262;49.836;6.632;2022-11-15T14:37:31;13.90;99.90
39347;DHT22;26262;49.836;6.632;2022-11-15T14:39:59;13.90;99.90
39347;DHT22;26262;49.836;6.632;2022-11-15T14:42:24;13.70;99.90
39347;DHT22;26262;49.836;6.632;2022-11-15T14:44:51;13.60;99.90
39347;DHT22;26262;49.836;6.632;2022-11-15T14:47:16;13.50;99.90
39347;DHT22;26262;49.836;6.632;2022-11-15T14:49:42;13.40;99.90
39347;DHT22;26262;49.836;6.632;2022-11-15T14:54:49;13.00;99.90
39347;DHT22;26262;49.836;6.632;2022-11-15T14:57:15;12.90;99.90
39347;DHT22;26262;49.836;6.632;2022-11-15T14:59:40;12.90;99.90
39347;DHT22;26262;49.836;6.632;2022-11-15T15:02:22;12.90;99.90
39347;DHT22;26262;49.836;6.632;2022-11-15T15:04:48;13.00;99.90
39347;DHT22;26262;49.836;6.632;2022-11-15T15:07:14;12.80;99.90
39347;DHT22;26262;49.836;6.632;2022-11-15T15:09:41;12.80;99.90
39347;DHT22;26262;49.836;6.632;2022-11-15T15:12:18;12.70;99.90
39347;DHT22;26262;49.836;6.632;2022-11-15T15:14:44;12.60;99.90
39347;DHT22;26262;49.836;6.632;2022-11-15T15:17:10;12.50;99.90
39347;DHT22;26262;49.836;6.632;2022-11-15T15:19:36;12.50;99.90
39347;DHT22;26262;49.836;6.632;2022-11-15T15:22:02;12.50;99.90
39347;DHT22;26262;49.836;6.632;2022-11-15T15:24:27;12.50;99.90
39347;DHT22;26262;49.836;6.632;2022-11-15T15:26:53;12.30;99.90
39347;DHT22;26262;49.836;6.632;2022-11-15T15:29:18;12.40;99.90
39347;DHT22;26262;49.836;6.632;2022-11-15T15:31:44;12.30;99.90
39347;DHT22;26262;49.836;6.632;2022-11-15T15:34:09;12.40;99.90
39347;DHT22;26262;49.836;6.632;2022-11-15T15:36:35;12.30;99.90
39347;DHT22;26262;49.836;6.632;2022-11-15T15:39:00;12.20;99.90
39347;DHT22;26262;49.836;6.632;2022-11-15T15:41:26;12.10;99.90
39347;DHT22;26262;49.836;6.632;2022-11-15T15:43:51;12.00;99.90
39347;DHT22;26262;49.836;6.632;2022-11-15T15:46:18;12.00;99.90
39347;DHT22;26262;49.836;6.632;2022-11-15T15:48:45;12.00;99.90
39347;DHT22;26262;49.836;6.632;2022-11-15T15:51:11;12.00;99.90
39347;DHT22;26262;49.836;6.632;2022-11-15T15:53:37;11.90;99.90
39347;DHT22;26262;49.836;6.632;2022-11-15T15:56:03;11.80;99.90
39347;DHT22;26262;49.836;6.632;2022-11-15T15:58:29;11.70;99.90
39347;DHT22;26262;49.836;6.632;2022-11-15T16:00:54;11.60;99.90
39347;DHT22;26262;49.836;6.632;2022-11-15T16:03:20;11.60;99.90
39347;DHT22;26262;49.836;6.632;2022-11-15T16:05:46;11.60;99.90
39347;DHT22;26262;49.836;6.632;2022-11-15T16:08:20;11.60;99.90
39347;DHT22;26262;49.836;6.632;2022-11-15T16:10:46;11.60;99.90
39347;DHT22;26262;49.836;6.632;2022-11-15T16:13:11;11.70;99.90
39347;DHT22;26262;49.836;6.632;2022-11-15T16:15:37;11.50;99.90
39347;DHT22;26262;49.836;6.632;2022-11-15T16:18:04;11.60;99.90
39347;DHT22;26262;49.836;6.632;2022-11-15T16:20:34;11.50;99.90
39347;DHT22;26262;49.836;6.632;2022-11-15T16:23:01;11.40;99.90
39347;DHT22;26262;49.836;6.632;2022-11-15T16:25:27;11.50;99.90
39347;DHT22;26262;49.836;6.632;2022-11-15T16:27:53;11.40;99.90
39347;DHT22;26262;49.836;6.632;2022-11-15T16:30:21;11.40;99.90
39347;DHT22;26262;49.836;6.632;2022-11-15T16:32:46;11.40;99.90
39347;DHT22;26262;49.836;6.632;2022-11-15T16:35:13;11.50;99.90
39347;DHT22;26262;49.836;6.632;2022-11-15T16:37:39;11.40;99.90
39347;DHT22;26262;49.836;6.632;2022-11-15T16:42:50;11.50;99.90
39347;DHT22;26262;49.836;6.632;2022-11-15T16:45:16;11.60;99.90
39347;DHT22;26262;49.836;6.632;2022-11-15T16:47:42;11.50;99.90
39347;DHT22;26262;49.836;6.632;2022-11-15T16:50:37;11.50;99.90
39347;DHT22;26262;49.836;6.632;2022-11-15T16:53:06;11.50;99.90
39347;DHT22;26262;49.836;6.632;2022-11-15T16:55:31;11.40;99.90
39347;DHT22;26262;49.836;6.632;2022-11-15T16:57:57;11.40;99.90
39347;DHT22;26262;49.836;6.632;2022-11-15T17:00:23;11.50;99.90
39347;DHT22;26262;49.836;6.632;2022-11-15T17:02:50;11.40;99.90
39347;DHT22;26262;49.836;6.632;2022-11-15T17:05:18;11.40;99.90
39347;DHT22;26262;49.836;6.632;2022-11-15T17:07:46;11.40;99.90
39347;DHT22;26262;49.836;6.632;2022-11-15T17:10:13;11.40;99.90
39347;DHT22;26262;49.836;6.632;2022-11-15T17:12:38;11.40;99.90
39347;DHT22;26262;49.836;6.632;2022-11-15T17:15:04;11.20;99.90
39347;DHT22;26262;49.836;6.632;2022-11-15T17:17:31;11.30;99.90
39347;DHT22;26262;49.836;6.632;2022-11-15T17:19:57;11.20;99.90
39347;DHT22;26262;49.836;6.632;2022-11-15T17:22:22;11.30;99.90
39347;DHT22;26262;49.836;6.632;2022-11-15T17:24:48;11.20;99.90
39347;DHT22;26262;49.836;6.632;2022-11-15T17:27:14;11.10;99.90
39347;DHT22;26262;49.836;6.632;2022-11-15T17:29:40;11.10;99.90
39347;DHT22;26262;49.836;6.632;2022-11-15T17:32:06;11.10;99.90
39347;DHT22;26262;49.836;6.632;2022-11-15T17:34:32;11.20;99.90
39347;DHT22;26262;49.836;6.632;2022-11-15T17:36:57;11.20;99.90
39347;DHT22;26262;49.836;6.632;2022-11-15T17:39:23;11.10;99.90
39347;DHT22;26262;49.836;6.632;2022-11-15T17:41:50;11.10;99.90
39347;DHT22;26262;49.836;6.632;2022-11-15T17:44:15;11.10;99.90
39347;DHT22;26262;49.836;6.632;2022-11-15T17:46:42;11.00;99.90
39347;DHT22;26262;49.836;6.632;2022-11-15T17:49:08;11.10;99.90
39347;DHT22;26262;49.836;6.632;2022-11-15T17:51:33;10.90;99.90
39347;DHT22;26262;49.836;6.632;2022-11-15T17:53:59;11.00;99.90
39347;DHT22;26262;49.836;6.632;2022-11-15T17:56:26;10.90;99.90
39347;DHT22;26262;49.836;6.632;2022-11-15T17:58:57;10.90;99.90
39347;DHT22;26262;49.836;6.632;2022-11-15T18:01:28;10.90;99.90